Aviation Digital Data Service (ADDS)

Output produced by METARs form (1708 UTC 21 September 2019)
found at http://aviationweather.gov/metar/data/
 
KHOU 211523Z 2115/2212 12009KT P6SM SCT025 BKN035 
     FM211600 13012KT P6SM VCSH SCT025 BKN035 
     FM212100 13013KT P6SM SCT035 BKN250 
     FM220400 13006KT P6SM SCT020